Agana Heights, GU

1:17 PM ChST on May 28, 2015 (GMT +1000)
Maite | | Change Station
CLOSE
Current Station
Personal Weather Station
Location: Maite, GU
Elevation: 140 ft
Nearby Weather Stations

Elev 140 ft 13.48 °N, 144.76 °E | Updated 16 seconds ago

Mostly Cloudy
Mostly Cloudy
83.8 °F
Feels Like 94 °F
N
9.0
Wind Variable Wind from SE
Gusts 18.0 mph

Today
High -- | Low -- °F
--% Chance of Precip.
Yesterday
High -- | Low -- °F
Precip. -- in
5:53 AM 6:43 PM
Waxing Gibbous, 72% visible
Pressure 29.83 in
Visibility 10.0 miles
Clouds Few 1500 ft
Scattered Clouds 2300 ft
Mostly Cloudy 4000 ft
Heat Index 94 °F
Dew Point 78 °F
Humidity 82%
Rainfall 0.23 in
Snow Depth Not available.
UV 9.2 out of 12
Pollen Not available.
Air Quality Not available.
Flu Activity Regional
SPECI PGUM 280315Z 11011G18KT 10SM FEW015 SCT023 BKN040 29/25 A2983 RMK AO2

More Conditions Fewer Conditions

Pressure 29.83 in
Visibility 10.0 miles
Clouds Few 1500 ft
Scattered Clouds 2300 ft
Mostly Cloudy 4000 ft
Heat Index 94 °F
Dew Point 78 °F
Humidity 82%
Rainfall 0.23 in
Snow Depth Not available.
UV 9.2 out of 12
Pollen Not available.
Air Quality Not available.
Flu Activity Regional
SPECI PGUM 280315Z 11011G18KT 10SM FEW015 SCT023 BKN040 29/25 A2983 RMK AO2

More Conditions Fewer Conditions

10-Day Weather Forecast

Almanac

Astronomy

May. 28, 2015 Rise Set
Actual Time
Civil Twilight
Nautical Twilight
Astronomical Twilight
Moon
Length of Visible Light
Length of Day
Tomorrow will be .
, % of the Moon is Illuminated

Today's Extremes

State Highs State Lows

Community

WunderPhotos

Upload Photos

1,824,885 photos uploaded!

WunderBlogs® & News

Nearby

Air Quality

  Air Quality AQ Index Pollutant
Not available.

Snow Depth

Station Depth Elevation

Earthquake Activity

City Distance Mag. Time & Date
Minimum magnitude displayed is 2.5.

Coastal Water Temperatures

Place Temperature

Stations

Nearby Weather Stations

Station Location Temp. Windchill Dew Point Humidity Wind Precip. Elev Updated Type